sensor_id;sensor_type;location;lat;lon;timestamp;pressure;altitude;pressure_sealevel;temperature;humidity
80164;BME280;69489;55.130;61.268;2023-04-28T00:02:02;98055.13;;;17.18;32.01
80164;BME280;69489;55.130;61.268;2023-04-28T00:04:28;98043.53;;;16.90;32.69
80164;BME280;69489;55.130;61.268;2023-04-28T00:06:54;98068.00;;;16.99;32.54
80164;BME280;69489;55.130;61.268;2023-04-28T00:09:19;98043.16;;;17.03;32.06
80164;BME280;69489;55.130;61.268;2023-04-28T00:11:45;98044.78;;;17.04;32.17
80164;BME280;69489;55.130;61.268;2023-04-28T00:14:12;98034.13;;;17.10;31.92
80164;BME280;69489;55.130;61.268;2023-04-28T00:16:38;98039.91;;;17.23;31.75
80164;BME280;69489;55.130;61.268;2023-04-28T00:19:04;98035.84;;;17.21;31.82
80164;BME280;69489;55.130;61.268;2023-04-28T00:21:29;98048.72;;;17.19;31.65
80164;BME280;69489;55.130;61.268;2023-04-28T00:23:56;98066.13;;;17.44;31.98
80164;BME280;69489;55.130;61.268;2023-04-28T00:26:22;98050.13;;;17.27;31.97
80164;BME280;69489;55.130;61.268;2023-04-28T00:28:48;98037.50;;;17.22;31.68
80164;BME280;69489;55.130;61.268;2023-04-28T00:31:14;98065.72;;;17.30;31.76
80164;BME280;69489;55.130;61.268;2023-04-28T00:33:41;98049.81;;;17.23;31.74
80164;BME280;69489;55.130;61.268;2023-04-28T00:36:08;98066.16;;;17.21;32.23
80164;BME280;69489;55.130;61.268;2023-04-28T00:38:34;98066.72;;;17.23;31.94
80164;BME280;69489;55.130;61.268;2023-04-28T00:41:00;98064.91;;;17.29;31.79
80164;BME280;69489;55.130;61.268;2023-04-28T00:43:26;98074.81;;;17.29;31.85
80164;BME280;69489;55.130;61.268;2023-04-28T00:45:52;98064.97;;;17.34;31.69
80164;BME280;69489;55.130;61.268;2023-04-28T00:48:18;98084.28;;;17.36;32.03
80164;BME280;69489;55.130;61.268;2023-04-28T00:50:45;98082.22;;;17.44;31.84
80164;BME280;69489;55.130;61.268;2023-04-28T00:53:12;98067.78;;;17.22;31.85
80164;BME280;69489;55.130;61.268;2023-04-28T00:55:38;98077.75;;;17.27;32.07
80164;BME280;69489;55.130;61.268;2023-04-28T00:58:05;98097.81;;;17.47;31.93
80164;BME280;69489;55.130;61.268;2023-04-28T01:00:32;98079.38;;;17.28;32.16
80164;BME280;69489;55.130;61.268;2023-04-28T01:02:58;98082.44;;;17.37;32.09
80164;BME280;69489;55.130;61.268;2023-04-28T01:05:24;98096.16;;;17.40;31.99
80164;BME280;69489;55.130;61.268;2023-04-28T01:07:51;98085.53;;;17.29;32.30
80164;BME280;69489;55.130;61.268;2023-04-28T01:10:17;98082.72;;;17.18;32.10
80164;BME280;69489;55.130;61.268;2023-04-28T01:12:43;98080.97;;;17.29;32.06
80164;BME280;69489;55.130;61.268;2023-04-28T01:15:14;98103.44;;;17.45;32.20
80164;BME280;69489;55.130;61.268;2023-04-28T01:17:40;98078.50;;;17.45;31.74
80164;BME280;69489;55.130;61.268;2023-04-28T01:20:07;98086.84;;;17.48;31.65
80164;BME280;69489;55.130;61.268;2023-04-28T01:22:33;98091.97;;;17.50;31.75
80164;BME280;69489;55.130;61.268;2023-04-28T01:24:59;98074.31;;;17.32;32.07
80164;BME280;69489;55.130;61.268;2023-04-28T01:27:25;98091.91;;;17.45;31.89
80164;BME280;69489;55.130;61.268;2023-04-28T01:29:51;98112.28;;;17.68;31.84
80164;BME280;69489;55.130;61.268;2023-04-28T01:32:17;98094.13;;;17.53;31.73
80164;BME280;69489;55.130;61.268;2023-04-28T01:34:42;98124.31;;;17.65;32.05
80164;BME280;69489;55.130;61.268;2023-04-28T01:37:08;98109.19;;;17.54;31.81
80164;BME280;69489;55.130;61.268;2023-04-28T01:39:34;98114.53;;;17.54;32.13
80164;BME280;69489;55.130;61.268;2023-04-28T01:42:00;98112.94;;;17.58;32.11
80164;BME280;69489;55.130;61.268;2023-04-28T01:44:26;98126.44;;;17.63;31.84
80164;BME280;69489;55.130;61.268;2023-04-28T01:46:55;98111.50;;;17.72;32.02
80164;BME280;69489;55.130;61.268;2023-04-28T01:49:21;98120.72;;;17.82;31.54
80164;BME280;69489;55.130;61.268;2023-04-28T01:51:47;98118.28;;;17.80;31.76
80164;BME280;69489;55.130;61.268;2023-04-28T01:54:12;98105.94;;;17.79;31.55
80164;BME280;69489;55.130;61.268;2023-04-28T01:56:39;98136.56;;;18.05;31.47
80164;BME280;69489;55.130;61.268;2023-04-28T01:59:05;98135.56;;;18.11;31.44
80164;BME280;69489;55.130;61.268;2023-04-28T02:01:31;98104.91;;;17.85;31.44
80164;BME280;69489;55.130;61.268;2023-04-28T02:03:58;98129.53;;;17.99;31.79
80164;BME280;69489;55.130;61.268;2023-04-28T02:06:26;98121.28;;;17.84;31.61
80164;BME280;69489;55.130;61.268;2023-04-28T02:08:53;98134.97;;;18.09;31.63
80164;BME280;69489;55.130;61.268;2023-04-28T02:11:19;98130.69;;;18.08;31.41
80164;BME280;69489;55.130;61.268;2023-04-28T02:13:47;98114.16;;;17.94;31.70
80164;BME280;69489;55.130;61.268;2023-04-28T02:16:54;98140.09;;;18.11;31.64
80164;BME280;69489;55.130;61.268;2023-04-28T02:19:40;98104.19;;;17.90;32.01
80164;BME280;69489;55.130;61.268;2023-04-28T02:22:12;98146.06;;;18.18;32.09
80164;BME280;69489;55.130;61.268;2023-04-28T02:24:59;98149.31;;;18.20;32.16
80164;BME280;69489;55.130;61.268;2023-04-28T02:27:25;98119.34;;;18.01;32.06
80164;BME280;69489;55.130;61.268;2023-04-28T02:29:53;98145.81;;;18.20;31.89
80164;BME280;69489;55.130;61.268;2023-04-28T02:32:19;98150.69;;;18.23;32.11
80164;BME280;69489;55.130;61.268;2023-04-28T02:34:45;98118.28;;;18.02;32.14
80164;BME280;69489;55.130;61.268;2023-04-28T02:37:11;98146.38;;;18.22;32.21
80164;BME280;69489;55.130;61.268;2023-04-28T02:39:37;98142.84;;;18.16;32.31
80164;BME280;69489;55.130;61.268;2023-04-28T02:42:04;98140.44;;;18.20;32.46
80164;BME280;69489;55.130;61.268;2023-04-28T02:44:30;98149.63;;;18.24;32.65
80164;BME280;69489;55.130;61.268;2023-04-28T02:46:57;98153.38;;;18.23;32.38
80164;BME280;69489;55.130;61.268;2023-04-28T02:49:23;98159.63;;;18.34;32.39
80164;BME280;69489;55.130;61.268;2023-04-28T02:51:49;98158.16;;;18.48;31.86
80164;BME280;69489;55.130;61.268;2023-04-28T02:54:15;98151.63;;;18.39;32.45
80164;BME280;69489;55.130;61.268;2023-04-28T02:56:41;98130.19;;;18.44;31.93
80164;BME280;69489;55.130;61.268;2023-04-28T02:59:08;98144.47;;;18.50;31.99
80164;BME280;69489;55.130;61.268;2023-04-28T03:01:35;98132.63;;;18.51;32.09
80164;BME280;69489;55.130;61.268;2023-04-28T03:04:16;98138.00;;;18.51;32.44
80164;BME280;69489;55.130;61.268;2023-04-28T03:06:50;98166.34;;;18.69;32.49
80164;BME280;69489;55.130;61.268;2023-04-28T03:09:17;98107.81;;;18.33;32.34
80164;BME280;69489;55.130;61.268;2023-04-28T03:12:03;98124.84;;;18.49;32.11
80164;BME280;69489;55.130;61.268;2023-04-28T08:34:13;98155.84;;;24.22;21.74
80164;BME280;69489;55.130;61.268;2023-04-28T08:37:01;98148.69;;;24.45;22.07
80164;BME280;69489;55.130;61.268;2023-04-28T08:39:45;98120.34;;;24.38;21.88
80164;BME280;69489;55.130;61.268;2023-04-28T08:42:19;98107.47;;;24.29;20.98
80164;BME280;69489;55.130;61.268;2023-04-28T08:44:47;98177.50;;;24.60;20.24
80164;BME280;69489;55.130;61.268;2023-04-28T08:47:33;98184.00;;;24.78;21.28
80164;BME280;69489;55.130;61.268;2023-04-28T08:50:08;98164.47;;;24.76;21.03
80164;BME280;69489;55.130;61.268;2023-04-28T08:52:35;98143.47;;;24.82;20.65
80164;BME280;69489;55.130;61.268;2023-04-28T08:55:06;98166.53;;;24.98;20.82
80164;BME280;69489;55.130;61.268;2023-04-28T08:57:52;98181.44;;;25.15;21.11
80164;BME280;69489;55.130;61.268;2023-04-28T09:00:19;98165.81;;;25.07;20.80
80164;BME280;69489;55.130;61.268;2023-04-28T09:02:46;98182.75;;;25.17;20.24
80164;BME280;69489;55.130;61.268;2023-04-28T09:05:20;98148.94;;;25.10;19.81
80164;BME280;69489;55.130;61.268;2023-04-28T09:07:46;98170.00;;;25.32;20.55
80164;BME280;69489;55.130;61.268;2023-04-28T10:56:11;98200.03;;;30.65;23.29
80164;BME280;69489;55.130;61.268;2023-04-28T10:59:00;98209.31;;;30.85;22.96
80164;BME280;69489;55.130;61.268;2023-04-28T11:01:47;98242.78;;;31.24;23.19
80164;BME280;69489;55.130;61.268;2023-04-28T11:04:46;98213.81;;;31.35;22.63
80164;BME280;69489;55.130;61.268;2023-04-28T11:07:28;98210.59;;;31.46;22.49
80164;BME280;69489;55.130;61.268;2023-04-28T11:09:55;98220.78;;;31.70;22.60
80164;BME280;69489;55.130;61.268;2023-04-28T11:12:22;98230.03;;;31.90;21.98
80164;BME280;69489;55.130;61.268;2023-04-28T11:14:50;98218.94;;;31.99;21.99
80164;BME280;69489;55.130;61.268;2023-04-28T11:17:42;98227.69;;;32.29;21.41
80164;BME280;69489;55.130;61.268;2023-04-28T11:20:20;98246.59;;;32.59;21.50
80164;BME280;69489;55.130;61.268;2023-04-28T11:23:15;98237.09;;;32.69;20.59
80164;BME280;69489;55.130;61.268;2023-04-28T13:00:32;98295.06;;;39.05;14.49
80164;BME280;69489;55.130;61.268;2023-04-28T13:03:00;98326.88;;;39.33;14.81
80164;BME280;69489;55.130;61.268;2023-04-28T13:05:48;98293.16;;;39.27;14.41
80164;BME280;69489;55.130;61.268;2023-04-28T13:08:37;98300.72;;;39.45;14.25
80164;BME280;69489;55.130;61.268;2023-04-28T13:11:08;98284.44;;;39.43;13.97
80164;BME280;69489;55.130;61.268;2023-04-28T13:14:06;98311.06;;;39.70;14.26
80164;BME280;69489;55.130;61.268;2023-04-28T13:16:41;98316.59;;;39.84;14.24
80164;BME280;69489;55.130;61.268;2023-04-28T13:19:12;98302.31;;;39.82;13.55
80164;BME280;69489;55.130;61.268;2023-04-28T13:22:18;98312.63;;;40.07;13.99
80164;BME280;69489;55.130;61.268;2023-04-28T13:24:45;98312.63;;;40.10;13.25
80164;BME280;69489;55.130;61.268;2023-04-28T13:27:25;98304.69;;;40.12;13.14
80164;BME280;69489;55.130;61.268;2023-04-28T13:29:59;98317.34;;;40.31;13.44
80164;BME280;69489;55.130;61.268;2023-04-28T13:32:33;98315.75;;;40.34;13.01
80164;BME280;69489;55.130;61.268;2023-04-28T13:35:32;98325.25;;;40.40;13.31
80164;BME280;69489;55.130;61.268;2023-04-28T13:38:08;98329.22;;;40.46;13.13
80164;BME280;69489;55.130;61.268;2023-04-28T13:40:56;98341.53;;;40.53;13.48
80164;BME280;69489;55.130;61.268;2023-04-28T13:44:26;98329.22;;;40.43;12.64
80164;BME280;69489;55.130;61.268;2023-04-28T13:47:15;98338.00;;;40.30;13.01
80164;BME280;69489;55.130;61.268;2023-04-28T13:50:42;98351.91;;;40.12;13.21
80164;BME280;69489;55.130;61.268;2023-04-28T13:54:28;98342.38;;;39.81;13.35
80164;BME280;69489;55.130;61.268;2023-04-28T13:57:49;98327.25;;;39.46;12.87
80164;BME280;69489;55.130;61.268;2023-04-28T14:00:36;98355.44;;;39.41;12.81
80164;BME280;69489;55.130;61.268;2023-04-28T14:04:11;98364.41;;;38.98;13.29
80164;BME280;69489;55.130;61.268;2023-04-28T14:07:20;98345.91;;;37.91;13.90
80164;BME280;69489;55.130;61.268;2023-04-28T14:10:08;98347.78;;;37.39;13.91
80164;BME280;69489;55.130;61.268;2023-04-28T14:12:37;98329.00;;;36.57;14.84
80164;BME280;69489;55.130;61.268;2023-04-28T14:15:05;98343.81;;;36.18;15.38
80164;BME280;69489;55.130;61.268;2023-04-28T14:17:33;98355.28;;;35.70;15.75
80164;BME280;69489;55.130;61.268;2023-04-28T14:20:28;98356.72;;;35.21;16.39
80164;BME280;69489;55.130;61.268;2023-04-28T14:23:17;98341.97;;;34.75;15.89
80164;BME280;69489;55.130;61.268;2023-04-28T14:25:54;98380.09;;;34.53;16.12
80164;BME280;69489;55.130;61.268;2023-04-28T14:28:24;98368.88;;;34.10;16.62
80164;BME280;69489;55.130;61.268;2023-04-28T14:31:13;98368.88;;;33.78;17.71
80164;BME280;69489;55.130;61.268;2023-04-28T14:34:26;98376.09;;;33.55;17.54
80164;BME280;69489;55.130;61.268;2023-04-28T14:37:39;98349.59;;;32.78;17.89
80164;BME280;69489;55.130;61.268;2023-04-28T14:40:06;98377.91;;;32.41;18.33
80164;BME280;69489;55.130;61.268;2023-04-28T14:42:33;98377.66;;;32.09;18.60
80164;BME280;69489;55.130;61.268;2023-04-28T14:45:05;98375.50;;;31.57;18.99
80164;BME280;69489;55.130;61.268;2023-04-28T14:47:32;98364.66;;;31.27;19.27
80164;BME280;69489;55.130;61.268;2023-04-28T14:49:58;98384.66;;;31.06;19.63
80164;BME280;69489;55.130;61.268;2023-04-28T14:52:24;98375.09;;;30.70;20.04
80164;BME280;69489;55.130;61.268;2023-04-28T14:54:55;98357.44;;;30.29;20.17
80164;BME280;69489;55.130;61.268;2023-04-28T14:57:22;98350.97;;;30.04;20.36
80164;BME280;69489;55.130;61.268;2023-04-28T14:59:48;98371.66;;;29.84;20.93
80164;BME280;69489;55.130;61.268;2023-04-28T15:02:16;98338.63;;;29.41;20.99
80164;BME280;69489;55.130;61.268;2023-04-28T15:04:43;98364.53;;;29.27;21.13
80164;BME280;69489;55.130;61.268;2023-04-28T15:07:11;98379.47;;;28.94;21.73
80164;BME280;69489;55.130;61.268;2023-04-28T15:09:37;98377.00;;;28.66;21.64
80164;BME280;69489;55.130;61.268;2023-04-28T15:12:03;98411.34;;;28.59;21.91
80164;BME280;69489;55.130;61.268;2023-04-28T15:14:30;98419.94;;;28.34;22.42
80164;BME280;69489;55.130;61.268;2023-04-28T15:16:56;98427.94;;;27.91;22.75
80164;BME280;69489;55.130;61.268;2023-04-28T15:19:22;98424.38;;;27.90;22.89
80164;BME280;69489;55.130;61.268;2023-04-28T15:21:49;98424.38;;;27.59;23.13
80164;BME280;69489;55.130;61.268;2023-04-28T15:24:19;98458.44;;;27.47;23.66
80164;BME280;69489;55.130;61.268;2023-04-28T15:26:47;98460.97;;;27.44;22.97
80164;BME280;69489;55.130;61.268;2023-04-28T15:29:13;98448.41;;;27.20;23.13
80164;BME280;69489;55.130;61.268;2023-04-28T15:31:39;98453.94;;;26.92;23.47
80164;BME280;69489;55.130;61.268;2023-04-28T15:34:06;98454.25;;;26.77;23.71
80164;BME280;69489;55.130;61.268;2023-04-28T15:36:38;98472.50;;;26.76;23.75
80164;BME280;69489;55.130;61.268;2023-04-28T15:39:10;98478.63;;;26.40;23.96
80164;BME280;69489;55.130;61.268;2023-04-28T15:41:36;98495.03;;;26.63;23.66
80164;BME280;69489;55.130;61.268;2023-04-28T15:44:02;98470.41;;;26.13;23.99
80164;BME280;69489;55.130;61.268;2023-04-28T15:46:29;98493.97;;;26.03;24.25
80164;BME280;69489;55.130;61.268;2023-04-28T15:48:56;98494.97;;;25.75;24.45
80164;BME280;69489;55.130;61.268;2023-04-28T15:51:21;98506.91;;;25.93;24.19
80164;BME280;69489;55.130;61.268;2023-04-28T15:53:48;98501.03;;;25.52;24.60
80164;BME280;69489;55.130;61.268;2023-04-28T15:56:18;98515.56;;;25.43;24.77
80164;BME280;69489;55.130;61.268;2023-04-28T15:58:50;98500.81;;;25.30;24.70
80164;BME280;69489;55.130;61.268;2023-04-28T16:01:16;98514.53;;;24.95;25.16
80164;BME280;69489;55.130;61.268;2023-04-28T16:03:42;98519.56;;;24.83;25.24
80164;BME280;69489;55.130;61.268;2023-04-28T16:06:09;98554.09;;;24.77;25.44
80164;BME280;69489;55.130;61.268;2023-04-28T16:08:35;98557.16;;;24.71;25.66
80164;BME280;69489;55.130;61.268;2023-04-28T16:11:01;98567.09;;;24.80;25.71
80164;BME280;69489;55.130;61.268;2023-04-28T16:13:28;98568.34;;;24.88;26.16
80164;BME280;69489;55.130;61.268;2023-04-28T16:16:00;98580.19;;;24.73;25.86
80164;BME280;69489;55.130;61.268;2023-04-28T16:18:26;98608.56;;;24.52;25.96
80164;BME280;69489;55.130;61.268;2023-04-28T16:20:52;98675.16;;;24.39;26.12
80164;BME280;69489;55.130;61.268;2023-04-28T16:23:18;98733.06;;;22.30;28.36
80164;BME280;69489;55.130;61.268;2023-04-28T16:25:45;98758.44;;;21.12;30.60
80164;BME280;69489;55.130;61.268;2023-04-28T16:28:13;98723.75;;;21.85;29.82
80164;BME280;69489;55.130;61.268;2023-04-28T16:30:39;98620.88;;;22.02;31.05
80164;BME280;69489;55.130;61.268;2023-04-28T16:33:05;98583.50;;;22.86;29.42
80164;BME280;69489;55.130;61.268;2023-04-28T16:35:32;98570.00;;;22.86;30.11
80164;BME280;69489;55.130;61.268;2023-04-28T16:37:58;98568.13;;;22.71;31.28
80164;BME280;69489;55.130;61.268;2023-04-28T16:40:24;98559.50;;;22.59;31.78
80164;BME280;69489;55.130;61.268;2023-04-28T16:42:49;98532.72;;;22.62;32.04
80164;BME280;69489;55.130;61.268;2023-04-28T16:45:15;98553.78;;;22.81;31.93
80164;BME280;69489;55.130;61.268;2023-04-28T16:47:41;98555.16;;;22.68;31.79
80164;BME280;69489;55.130;61.268;2023-04-28T16:50:10;98574.28;;;22.92;31.86
80164;BME280;69489;55.130;61.268;2023-04-28T16:52:36;98549.22;;;22.61;32.33
80164;BME280;69489;55.130;61.268;2023-04-28T16:55:02;98530.09;;;22.37;32.83
80164;BME280;69489;55.130;61.268;2023-04-28T16:57:28;98499.81;;;22.34;33.16
80164;BME280;69489;55.130;61.268;2023-04-28T16:59:54;98473.03;;;22.23;32.68
80164;BME280;69489;55.130;61.268;2023-04-28T17:02:20;98444.97;;;22.08;33.11
80164;BME280;69489;55.130;61.268;2023-04-28T17:04:46;98433.91;;;22.05;33.29
80164;BME280;69489;55.130;61.268;2023-04-28T17:07:12;98443.38;;;22.02;33.78
80164;BME280;69489;55.130;61.268;2023-04-28T17:09:38;98417.16;;;21.92;33.63
80164;BME280;69489;55.130;61.268;2023-04-28T17:12:04;98436.88;;;21.98;34.30
80164;BME280;69489;55.130;61.268;2023-04-28T17:14:30;98443.94;;;21.83;34.58
80164;BME280;69489;55.130;61.268;2023-04-28T17:16:55;98458.50;;;21.82;34.79
80164;BME280;69489;55.130;61.268;2023-04-28T17:19:22;98471.19;;;21.77;35.09
80164;BME280;69489;55.130;61.268;2023-04-28T17:21:47;98476.34;;;21.89;35.05
80164;BME280;69489;55.130;61.268;2023-04-28T17:24:14;98484.16;;;21.64;34.95
80164;BME280;69489;55.130;61.268;2023-04-28T17:26:40;98481.19;;;21.56;35.28
80164;BME280;69489;55.130;61.268;2023-04-28T17:29:06;98470.63;;;21.44;35.27
80164;BME280;69489;55.130;61.268;2023-04-28T17:31:31;98470.34;;;21.40;35.04
80164;BME280;69489;55.130;61.268;2023-04-28T17:33:59;98469.53;;;21.29;36.03
80164;BME280;69489;55.130;61.268;2023-04-28T17:36:25;98458.16;;;21.17;35.32
80164;BME280;69489;55.130;61.268;2023-04-28T17:38:52;98477.84;;;21.12;35.49
80164;BME280;69489;55.130;61.268;2023-04-28T17:41:17;98479.19;;;21.10;36.10
80164;BME280;69489;55.130;61.268;2023-04-28T17:43:47;98475.66;;;21.04;35.98
80164;BME280;69489;55.130;61.268;2023-04-28T17:46:13;98488.06;;;21.00;34.99
80164;BME280;69489;55.130;61.268;2023-04-28T17:48:40;98478.34;;;20.99;35.54
80164;BME280;69489;55.130;61.268;2023-04-28T17:51:07;98468.63;;;20.88;35.78
80164;BME280;69489;55.130;61.268;2023-04-28T17:53:33;98465.31;;;20.75;36.22
80164;BME280;69489;55.130;61.268;2023-04-28T17:55:59;98498.25;;;20.83;36.26
80164;BME280;69489;55.130;61.268;2023-04-28T17:58:26;98497.66;;;20.70;36.35
80164;BME280;69489;55.130;61.268;2023-04-28T18:01:05;98513.09;;;20.85;36.63
80164;BME280;69489;55.130;61.268;2023-04-28T18:03:36;98511.94;;;20.66;36.10
80164;BME280;69489;55.130;61.268;2023-04-28T18:06:02;98524.84;;;20.64;35.99
80164;BME280;69489;55.130;61.268;2023-04-28T18:08:32;98532.34;;;20.62;35.84
80164;BME280;69489;55.130;61.268;2023-04-28T18:10:58;98546.66;;;20.62;36.17
80164;BME280;69489;55.130;61.268;2023-04-28T18:13:25;98548.75;;;20.50;36.02
80164;BME280;69489;55.130;61.268;2023-04-28T18:15:51;98551.13;;;20.41;36.19
80164;BME280;69489;55.130;61.268;2023-04-28T18:18:17;98559.19;;;20.41;36.30
80164;BME280;69489;55.130;61.268;2023-04-28T18:20:44;98544.00;;;20.30;36.44
80164;BME280;69489;55.130;61.268;2023-04-28T18:23:10;98573.97;;;20.33;36.62
80164;BME280;69489;55.130;61.268;2023-04-28T18:25:35;98552.50;;;20.11;37.02
80164;BME280;69489;55.130;61.268;2023-04-28T18:28:02;98567.13;;;20.20;36.73
80164;BME280;69489;55.130;61.268;2023-04-28T18:30:28;98569.53;;;20.17;37.12
80164;BME280;69489;55.130;61.268;2023-04-28T18:33:04;98560.84;;;20.10;37.44
80164;BME280;69489;55.130;61.268;2023-04-28T18:35:30;98552.50;;;20.11;36.96
80164;BME280;69489;55.130;61.268;2023-04-28T18:37:56;98545.50;;;20.10;37.16
80164;BME280;69489;55.130;61.268;2023-04-28T18:40:22;98532.84;;;20.11;37.34
80164;BME280;69489;55.130;61.268;2023-04-28T18:42:48;98509.31;;;19.96;37.40
80164;BME280;69489;55.130;61.268;2023-04-28T18:45:14;98528.81;;;20.13;37.56
80164;BME280;69489;55.130;61.268;2023-04-28T18:47:39;98506.59;;;19.96;37.28
80164;BME280;69489;55.130;61.268;2023-04-28T18:50:05;98519.81;;;19.97;37.99
80164;BME280;69489;55.130;61.268;2023-04-28T18:52:32;98523.69;;;19.79;38.30
80164;BME280;69489;55.130;61.268;2023-04-28T18:54:58;98535.94;;;19.65;38.17
80164;BME280;69489;55.130;61.268;2023-04-28T18:57:24;98570.94;;;19.92;38.38
80164;BME280;69489;55.130;61.268;2023-04-28T18:59:50;98551.31;;;19.42;38.58
80164;BME280;69489;55.130;61.268;2023-04-28T19:02:16;98575.22;;;19.39;39.24
80164;BME280;69489;55.130;61.268;2023-04-28T19:04:44;98587.91;;;19.43;39.35
80164;BME280;69489;55.130;61.268;2023-04-28T19:07:09;98577.97;;;19.22;39.36
80164;BME280;69489;55.130;61.268;2023-04-28T19:09:35;98557.84;;;19.02;39.09
80164;BME280;69489;55.130;61.268;2023-04-28T19:12:01;98567.75;;;18.96;39.33
80164;BME280;69489;55.130;61.268;2023-04-28T19:14:27;98567.09;;;18.89;39.73
80164;BME280;69489;55.130;61.268;2023-04-28T19:16:53;98578.78;;;19.00;39.20
80164;BME280;69489;55.130;61.268;2023-04-28T19:19:19;98574.09;;;18.73;39.34
80164;BME280;69489;55.130;61.268;2023-04-28T19:21:44;98601.44;;;18.48;40.33
80164;BME280;69489;55.130;61.268;2023-04-28T19:24:11;98604.94;;;18.15;40.96
80164;BME280;69489;55.130;61.268;2023-04-28T19:26:37;98591.56;;;18.03;41.09
80164;BME280;69489;55.130;61.268;2023-04-28T19:29:03;98619.41;;;18.14;41.20
80164;BME280;69489;55.130;61.268;2023-04-28T19:31:28;98586.44;;;18.01;40.75
80164;BME280;69489;55.130;61.268;2023-04-28T19:33:54;98588.16;;;17.90;41.19
80164;BME280;69489;55.130;61.268;2023-04-28T19:36:21;98602.06;;;18.04;41.06
80164;BME280;69489;55.130;61.268;2023-04-28T19:38:47;98614.84;;;18.14;41.25
80164;BME280;69489;55.130;61.268;2023-04-28T19:41:12;98593.47;;;18.02;41.08
80164;BME280;69489;55.130;61.268;2023-04-28T19:43:39;98589.38;;;18.17;41.27
80164;BME280;69489;55.130;61.268;2023-04-28T19:46:05;98547.09;;;18.07;40.61
80164;BME280;69489;55.130;61.268;2023-04-28T19:48:30;98547.78;;;18.36;40.75
80164;BME280;69489;55.130;61.268;2023-04-28T19:50:58;98548.66;;;18.59;40.48
80164;BME280;69489;55.130;61.268;2023-04-28T19:53:24;98522.84;;;18.58;40.00
80164;BME280;69489;55.130;61.268;2023-04-28T19:55:50;98510.84;;;18.65;39.79
80164;BME280;69489;55.130;61.268;2023-04-28T19:58:16;98500.59;;;18.62;39.85
80164;BME280;69489;55.130;61.268;2023-04-28T20:00:42;98510.09;;;18.70;39.66
80164;BME280;69489;55.130;61.268;2023-04-28T20:03:09;98525.47;;;18.75;40.05
80164;BME280;69489;55.130;61.268;2023-04-28T20:05:38;98534.53;;;18.69;40.32
80164;BME280;69489;55.130;61.268;2023-04-28T20:08:04;98528.22;;;18.58;39.88
80164;BME280;69489;55.130;61.268;2023-04-28T20:10:30;98537.41;;;18.62;40.32
80164;BME280;69489;55.130;61.268;2023-04-28T20:12:56;98534.38;;;18.58;40.36
80164;BME280;69489;55.130;61.268;2023-04-28T20:15:22;98522.94;;;18.46;39.99
80164;BME280;69489;55.130;61.268;2023-04-28T20:17:47;98525.81;;;18.39;40.31
80164;BME280;69489;55.130;61.268;2023-04-28T20:20:13;98548.69;;;18.42;40.50
80164;BME280;69489;55.130;61.268;2023-04-28T20:22:39;98540.53;;;18.37;40.96
80164;BME280;69489;55.130;61.268;2023-04-28T20:25:07;98557.97;;;18.34;41.02
80164;BME280;69489;55.130;61.268;2023-04-28T20:27:34;98541.94;;;18.22;40.81
80164;BME280;69489;55.130;61.268;2023-04-28T20:30:00;98552.44;;;18.24;41.09
80164;BME280;69489;55.130;61.268;2023-04-28T20:32:26;98545.44;;;18.23;41.09
80164;BME280;69489;55.130;61.268;2023-04-28T20:34:52;98535.91;;;18.15;41.42
80164;BME280;69489;55.130;61.268;2023-04-28T20:37:18;98546.41;;;18.17;41.51
80164;BME280;69489;55.130;61.268;2023-04-28T20:39:46;98544.72;;;18.10;41.36
80164;BME280;69489;55.130;61.268;2023-04-28T20:42:12;98551.22;;;18.15;41.15
80164;BME280;69489;55.130;61.268;2023-04-28T20:44:38;98538.44;;;18.05;41.32
80164;BME280;69489;55.130;61.268;2023-04-28T20:47:05;98555.69;;;18.09;41.71
80164;BME280;69489;55.130;61.268;2023-04-28T20:49:31;98554.06;;;18.08;41.67
80164;BME280;69489;55.130;61.268;2023-04-28T20:52:04;98553.19;;;18.02;41.80
80164;BME280;69489;55.130;61.268;2023-04-28T20:54:31;98557.19;;;17.88;41.87
80164;BME280;69489;55.130;61.268;2023-04-28T20:56:58;98539.38;;;17.65;41.71
80164;BME280;69489;55.130;61.268;2023-04-28T20:59:24;98553.59;;;17.65;41.68
80164;BME280;69489;55.130;61.268;2023-04-28T21:01:50;98559.75;;;17.66;41.80
80164;BME280;69489;55.130;61.268;2023-04-28T21:04:16;98559.69;;;17.61;41.45
80164;BME280;69489;55.130;61.268;2023-04-28T21:06:42;98572.84;;;17.62;41.88
80164;BME280;69489;55.130;61.268;2023-04-28T21:09:07;98579.66;;;17.53;42.23
80164;BME280;69489;55.130;61.268;2023-04-28T21:11:34;98572.56;;;17.47;42.11
80164;BME280;69489;55.130;61.268;2023-04-28T21:14:00;98587.03;;;17.46;42.40
80164;BME280;69489;55.130;61.268;2023-04-28T21:16:26;98593.09;;;17.41;42.39
80164;BME280;69489;55.130;61.268;2023-04-28T21:18:51;98604.31;;;17.38;42.50
80164;BME280;69489;55.130;61.268;2023-04-28T21:21:18;98602.59;;;17.20;42.80
80164;BME280;69489;55.130;61.268;2023-04-28T21:23:44;98621.50;;;17.25;43.20
80164;BME280;69489;55.130;61.268;2023-04-28T21:26:10;98610.56;;;17.15;42.93
80164;BME280;69489;55.130;61.268;2023-04-28T21:28:36;98595.75;;;17.00;43.28
80164;BME280;69489;55.130;61.268;2023-04-28T21:31:04;98630.59;;;17.12;43.05
80164;BME280;69489;55.130;61.268;2023-04-28T21:33:30;98613.50;;;17.01;43.37
80164;BME280;69489;55.130;61.268;2023-04-28T21:35:56;98606.41;;;16.95;43.80
80164;BME280;69489;55.130;61.268;2023-04-28T21:38:23;98603.84;;;16.89;43.89
80164;BME280;69489;55.130;61.268;2023-04-28T21:40:49;98618.28;;;16.99;43.60
80164;BME280;69489;55.130;61.268;2023-04-28T21:43:15;98614.28;;;17.02;43.84
80164;BME280;69489;55.130;61.268;2023-04-28T21:45:41;98594.88;;;16.95;43.68
80164;BME280;69489;55.130;61.268;2023-04-28T21:48:07;98589.84;;;16.98;44.01